Tiempo atmosférico en la estación meteorológica de Sena de Luna, Miñera, León (1120 m.)



Fecha
DESCASC
Temp. máxima en grados centígrados (hora)
DESCASC
Temp. mínima en grados centígrados (hora)
DESCASC
Temp. media en grados centígrados
DESCASC
Racha de viento máxima en m/sg (hora)
DESCASC
Velocidad máxima media en intervalos de 10 minutos(hora)
DESCASC
Precipitaciones diarias en mm
DESCASC
Precipitaciones de 00:00 a 06:00 en mm
DESCASC
Precipitaciones de 06:00 a 12:00 en mm
DESCASC
Precipitaciones de 12:00 a 18:00 en mm
DESCASC
Precipitaciones de 18:00 a 24:00 en mm
DESCASC

Gráficas

Temp. máximas Temp. mínimas Temp. medias Precipitaciones Rachas de viento máximas Velocidades máximas media en intervalos de 10 minutos

Datos horarios

Fecha y hora oficial Temperatura (ºC) Velocidad del viento (km/h) Dirección del viento Racha (km/h) Dirección de racha Precipitación (mm) Presión (hPa) Tendencia (hPa) Humedad (%)
2019-10-14 23:00:00 -- 5 Norte 17 Noroeste 0 -- -- --
2019-10-14 22:00:00 -- 6 Noroeste 18 Noroeste 0 -- -- --
2019-10-14 21:00:00 -- 7 Noroeste 28 Noroeste 0 -- -- --
2019-10-14 20:00:00 -- 10 Noroeste 30 Noroeste 0 -- -- --
2019-10-14 19:00:00 -- 10 Oeste 27 Oeste 0 -- -- --
2019-10-14 18:00:00 -- 2 Oeste 17 Sudoeste 0 -- -- --
2019-10-14 17:00:00 -- 10 Noroeste 38 Sudoeste 1 -- -- --
2019-10-14 16:00:00 -- 16 Sur 32 Sur 0 -- -- --
2019-10-14 15:00:00 -- 17 Sur 29 Sur 0 -- -- --
2019-10-14 14:00:00 -- 16 Sur 32 Sudoeste 3.4 -- -- --
2019-10-14 13:00:00 -- 17 Sur 35 Sur 0.6 -- -- --
2019-10-14 12:00:00 -- 14 Sur 34 Sur 0 -- -- --
2019-10-14 11:00:00 -- 6 Sur 18 Sur 0 -- -- --
2019-10-14 10:00:00 -- 6 Sudeste 16 Este 3.6 -- -- --
2019-10-14 09:00:00 -- 6 Sudeste 33 Sur 4 -- -- --
2019-10-14 08:00:00 -- 14 Sur 38 Sur 1.8 -- -- --
2019-10-14 07:00:00 -- 22 Sudoeste 58 Este 0 -- -- --
2019-10-14 06:00:00 -- 38 Sudeste 70 Sudeste 0 -- -- --
2019-10-14 05:00:00 -- 30 Este 59 Este 0 -- -- --
2019-10-14 04:00:00 -- 26 Sudeste 56 Sudeste -- -- -- --
2019-10-14 03:00:00 -- 23 Sur 46 Sur 0 -- -- --
2019-10-14 02:00:00 -- 14 Sur 40 Sudeste 0 -- -- --
2019-10-14 01:00:00 -- 26 Sur 53 Sur 0 -- -- --
2019-10-14 00:00:00 -- 25 Sur 58 Sur 0 -- -- --
2019-10-13 23:00:00 -- 32 Sur 54 Sur 0 -- -- --
2019-10-13 22:00:00 -- 26 Sur 48 Sur 0 -- -- --
2019-10-13 21:00:00 -- 30 Sur 53 Sur 0 -- -- --
2019-10-13 20:00:00 -- 18 Sudeste 41 Sudeste 0 -- -- --
2019-10-13 19:00:00 -- 15 Sur 41 Sur 0 -- -- --
2019-10-13 18:00:00 -- 17 Sur 41 Sudeste 0 -- -- --
2019-10-13 17:00:00 -- 18 Sur 53 Sur 0 -- -- --
2019-10-13 16:00:00 -- 20 Sur 36 Sudeste 0 -- -- --
2019-10-13 15:00:00 -- 17 Sur 39 Sur 0 -- -- --
2019-10-13 14:00:00 -- 22 Sur 45 Sur 0.8 -- -- --
2019-10-13 13:00:00 -- 14 Sur 41 Este 0 -- -- --
2019-10-13 12:00:00 -- 17 Sudeste 38 Sudeste 0 -- -- --
2019-10-13 11:00:00 -- 13 Sudeste 34 Sur 0 -- -- --
2019-10-13 10:00:00 -- 16 Sudeste 35 Sur 0 -- -- --
2019-10-13 09:00:00 -- 17 Sur 39 Sur 0 -- -- --
2019-10-13 08:00:00 -- 16 Sudeste 35 Sudeste 0 -- -- --
2019-10-13 07:00:00 -- 11 Sur 42 Sur 0 -- -- --
2019-10-13 06:00:00 -- 18 Sudeste 49 Sudoeste 0 -- -- --
2019-10-13 05:00:00 -- 26 Sur 45 Sur 0 -- -- --
2019-10-13 04:00:00 -- 18 Sudeste 46 Sur 0 -- -- --
2019-10-13 03:00:00 -- 23 Sudeste 50 Este 0 -- -- --
2019-10-13 02:00:00 -- 20 Sudeste 58 Sur 0 -- -- --
2019-10-13 01:00:00 -- 34 Sur 67 Sur 0 -- -- --
2019-10-13 00:00:00 -- 24 Sur 66 Sudeste 0 -- -- --
2019-10-12 23:00:00 -- 15 Sur 34 Sur 0 -- -- --
2019-10-12 22:00:00 -- 10 Sur 19 Sur 0 -- -- --
2019-10-12 21:00:00 -- 8 Sudeste 55 Oeste 0.8 -- -- --
2019-10-12 20:00:00 -- 11 Sudoeste 44 Sudoeste 0 -- -- --
2019-10-12 19:00:00 -- 33 Sur 69 Sur 0 -- -- --
2019-10-12 18:00:00 -- 37 Sur 70 Sur 0 -- -- --
2019-10-12 17:00:00 -- 42 Sur 70 Sur 0 -- -- --
2019-10-12 16:00:00 -- 40 Sur 67 Sur 0 -- -- --
2019-10-12 15:00:00 -- 45 Sur 66 Sur 0 -- -- --
2019-10-12 14:00:00 -- 28 Sur 55 Sur 0 -- -- --
2019-10-12 13:00:00 -- 15 Sudeste 42 Sur 0 -- -- --
2019-10-12 12:00:00 -- 14 Sur 31 Sur 0 -- -- --
2019-10-12 11:00:00 -- 22 Sur 28 Sur 0 -- -- --
2019-10-12 10:00:00 -- 16 Sur 22 Sur 0 -- -- --
2019-10-12 09:00:00 -- 7 Sur 18 Sur 0 -- -- --
2019-10-12 08:00:00 -- 11 Sudoeste 23 Sur 0 -- -- --
2019-10-12 07:00:00 -- 8 Sur 18 Sur 0 -- -- --
2019-10-12 06:00:00 -- 8 Sur 22 Sur 0 -- -- --
2019-10-12 05:00:00 -- 0 Calma 5 Sur 0 -- -- --
2019-10-12 04:00:00 -- 6 Nordeste 8 Nordeste 0 -- -- --
2019-10-12 03:00:00 -- 0 Calma 6 Este 0 -- -- --
2019-10-12 02:00:00 -- 2 Este 5 Este 0 -- -- --
2019-10-12 01:00:00 -- 0 Calma 4 Este 0 -- -- --
2019-10-12 00:00:00 -- 0 Calma 4 Sur 0 -- -- --
2019-10-11 23:00:00 -- 0 Calma 4 Sudoeste 0 -- -- --
2019-10-11 22:00:00 -- 0 Calma 5 Este 0 -- -- --
2019-10-11 21:00:00 -- 3 Este 8 Este 0 -- -- --
2019-10-11 20:00:00 -- 0 Calma 20 Sur 0 -- -- --
2019-10-11 19:00:00 -- 9 Sudoeste 31 Sudoeste 0 -- -- --
2019-10-11 18:00:00 -- 11 Sudoeste 29 Este 0 -- -- --
2019-10-11 17:00:00 -- 21 Sur 43 Sur 0 -- -- --
2019-10-11 16:00:00 -- 19 Sur 35 Sur 0 -- -- --
2019-10-11 15:00:00 -- 14 Sur 31 Sur 0 -- -- --
2019-10-11 14:00:00 -- 17 Sur 26 Sur 0 -- -- --
2019-10-11 13:00:00 -- 13 Sur 24 Sur 0 -- -- --
2019-10-11 12:00:00 -- 5 Sur 9 Sur 0 -- -- --
2019-10-11 11:00:00 -- 0 Calma 6 Sur 0 -- -- --
2019-10-11 10:00:00 -- 0 Calma 3 Sudeste 0 -- -- --
2019-10-11 09:00:00 -- 0 Calma 3 Nordeste 0 -- -- --
2019-10-11 08:00:00 -- 0 Calma 5 Norte 0 -- -- --
2019-10-11 07:00:00 -- 0 Calma 3 Noroeste 0 -- -- --
2019-10-11 06:00:00 -- 0 Calma 2 Nordeste 0 -- -- --
2019-10-11 05:00:00 -- 0 Calma 3 Noroeste 0 -- -- --
2019-10-11 04:00:00 -- 0 Calma 5 Noroeste 0 -- -- --
2019-10-11 03:00:00 -- 3 Norte 13 Norte 0 -- -- --
2019-10-11 02:00:00 -- 0 Calma 4 Este 0 -- -- --
2019-10-11 01:00:00 -- 0 Calma 3 Este 0 -- -- --
2019-10-11 00:00:00 -- 0 Calma 4 Sudoeste 0 -- -- --
2019-10-10 23:00:00 -- 0 Calma 2 Sudoeste 0 -- -- --
2019-10-10 22:00:00 -- 0 Calma 4 Este 0 -- -- --
2019-10-10 21:00:00 -- 0 Calma 9 Sudoeste 0 -- -- --
2019-10-10 20:00:00 -- 7 Sur 16 Sur 0 -- -- --
2019-10-10 19:00:00 -- 12 Sur 22 Sur 0 -- -- --
2019-10-10 18:00:00 -- 13 Sur 23 Sur 0 -- -- --
2019-10-10 17:00:00 -- 12 Sur 18 Sudoeste 0 -- -- --
2019-10-10 16:00:00 -- 8 Sur 14 Sur 0 -- -- --
2019-10-10 15:00:00 -- 10 Sur 15 Sur 0 -- -- --
2019-10-10 14:00:00 -- 10 Sur 14 Sur 0 -- -- --
2019-10-10 13:00:00 -- 6 Sur 11 Sur 0 -- -- --
2019-10-10 12:00:00 -- 3 Sur 6 Sur 0 -- -- --
2019-10-10 11:00:00 -- 3 Sur 5 Sur 0 -- -- --
2019-10-10 10:00:00 -- 4 Norte 12 Norte 0 -- -- --
2019-10-10 09:00:00 -- 6 Norte 11 Norte 0 -- -- --
2019-10-10 08:00:00 -- 5 Norte 12 Norte 0 -- -- --
2019-10-10 07:00:00 -- 7 Norte 11 Norte 0 -- -- --
2019-10-10 06:00:00 -- 8 Norte 12 Norte 0 -- -- --
2019-10-10 05:00:00 -- 8 Norte 13 Norte 0 -- -- --
2019-10-10 04:00:00 -- 0 Calma 13 Norte 0 -- -- --
2019-10-10 03:00:00 -- 8 Norte 12 Norte 0 -- -- --
2019-10-10 02:00:00 -- 0 Calma 12 Norte 0 -- -- --
2019-10-10 01:00:00 -- 3 Nordeste 9 Nordeste 0 -- -- --
2019-10-10 00:00:00 -- 9 Norte 12 Norte 0 -- -- --
2019-10-09 23:00:00 -- 3 Nordeste 8 Norte 0 -- -- --
2019-10-09 22:00:00 -- 5 Norte 12 Norte 0 -- -- --
2019-10-09 21:00:00 -- 4 Norte 14 Noroeste 0 -- -- --
2019-10-09 20:00:00 -- 4 Noroeste 15 Noroeste 0 -- -- --
2019-10-09 19:00:00 -- 6 Norte 23 Noroeste 0 -- -- --
2019-10-09 18:00:00 -- 14 Norte 23 Norte 0 -- -- --
2019-10-09 17:00:00 -- 15 Norte 24 Norte 0 -- -- --
2019-10-09 16:00:00 -- 6 Oeste 24 Sudoeste 0 -- -- --
2019-10-09 15:00:00 -- 8 Oeste 17 Oeste 0 -- -- --
2019-10-09 14:00:00 -- 7 Noroeste 20 Noroeste 0 -- -- --
2019-10-09 13:00:00 -- 7 Norte 22 Nordeste 0 -- -- --
2019-10-09 12:00:00 -- 15 Norte 23 Norte 0 -- -- --
2019-10-09 11:00:00 -- 5 Oeste 17 Sudoeste 0 -- -- --
2019-10-09 10:00:00 -- 5 Oeste 16 Noroeste 0 -- -- --
2019-10-09 09:00:00 -- 5 Noroeste 15 Noroeste 0 -- -- --
2019-10-09 08:00:00 -- 4 Noroeste 17 Noroeste 0 -- -- --
2019-10-09 07:00:00 -- 4 Noroeste 15 Noroeste 0 -- -- --
2019-10-09 06:00:00 -- 4 Norte 13 Norte 0 -- -- --
2019-10-09 05:00:00 -- 5 Norte 17 Norte 0 -- -- --
2019-10-09 04:00:00 -- 6 Norte 13 Norte 0 -- -- --
2019-10-09 03:00:00 -- 3 Norte 12 Norte 0 -- -- --
2019-10-09 02:00:00 -- 3 Noroeste 8 Noroeste 0 -- -- --
2019-10-09 01:00:00 -- 3 Noroeste 11 Noroeste 0 -- -- --
2019-10-09 00:00:00 -- 4 Noroeste 21 Noroeste 0 -- -- --
2019-10-08 23:00:00 -- 4 Noroeste 18 Norte 0 -- -- --
2019-10-08 22:00:00 -- 0 Calma 5 Nordeste 0 -- -- --
2019-10-08 21:00:00 -- 3 Norte 10 Noroeste 0 -- -- --
2019-10-08 20:00:00 -- 6 Noroeste 15 Noroeste 0 -- -- --
2019-10-08 19:00:00 -- 4 Noroeste 14 Norte 0 -- -- --
2019-10-08 18:00:00 -- 5 Oeste 23 Oeste 0 -- -- --
2019-10-08 17:00:00 -- 9 Oeste 22 Oeste 0 -- -- --
2019-10-08 16:00:00 -- 6 Oeste 21 Oeste 0 -- -- --
2019-10-08 15:00:00 -- 5 Sur 8 Sudoeste 0 -- -- --
2019-10-08 14:00:00 -- 4 Sur 8 Sur 0 -- -- --
2019-10-08 13:00:00 -- 3 Sudoeste 5 Sur 0 -- -- --
2019-10-08 12:00:00 -- 2 Sur 5 Sudoeste 0 -- -- --
2019-10-08 11:00:00 -- 2 Sur 12 Norte 0 -- -- --
2019-10-08 10:00:00 -- 6 Norte 12 Norte 0 -- -- --
2019-10-08 09:00:00 -- 4 Norte 9 Noroeste 0 -- -- --
2019-10-08 08:00:00 -- 2 Norte 11 Norte 0 -- -- --
2019-10-08 07:00:00 -- 3 Nordeste 12 Norte 0 -- -- --
2019-10-08 06:00:00 -- 0 Calma 10 Norte 0 -- -- --
2019-10-08 05:00:00 -- 0 Calma 12 Norte 0 -- -- --
2019-10-08 04:00:00 -- 6 Norte 9 Norte 0 -- -- --
2019-10-08 03:00:00 -- 7 Norte 12 Norte 0 -- -- --
2019-10-08 02:00:00 -- 3 Norte 8 Norte 0 -- -- --
2019-10-08 01:00:00 -- 2 Norte 10 Norte 0 -- -- --
2019-10-08 00:00:00 -- 0 Calma 5 Noroeste 0 -- -- --
2019-10-07 23:00:00 -- 0 Calma 8 Norte 0 -- -- --
2019-10-07 22:00:00 -- 0 Calma 4 Norte 0 -- -- --
2019-10-07 21:00:00 -- 0 Calma 4 Sudoeste 0 -- -- --
2019-10-07 20:00:00 -- 2 Noroeste 13 Oeste 0 -- -- --
2019-10-07 19:00:00 -- 5 Noroeste 14 Noroeste 0 -- -- --
2019-10-07 18:00:00 -- 6 Noroeste 14 Noroeste 0 -- -- --
2019-10-07 17:00:00 -- 5 Oeste 13 Sudoeste 0 -- -- --
2019-10-07 16:00:00 -- 6 Sudoeste 11 Sudoeste 0 -- -- --
2019-10-07 15:00:00 -- 4 Sudoeste 13 Sur 0 -- -- --
2019-10-07 14:00:00 -- 4 Sur 7 Sur 0 -- -- --
2019-10-07 13:00:00 -- 3 Sur 5 Sur 0 -- -- --
2019-10-07 12:00:00 -- 3 Sur 6 Sur 0 -- -- --
2019-10-07 11:00:00 -- 4 Norte 13 Norte 0 -- -- --
2019-10-07 10:00:00 -- 4 Norte 14 Norte 0 -- -- --
2019-10-07 09:00:00 -- 9 Norte 13 Norte 0 -- -- --
2019-10-07 08:00:00 -- 7 Norte 14 Norte 0 -- -- --
2019-10-07 07:00:00 -- 7 Norte 12 Norte 0 -- -- --
2019-10-07 06:00:00 -- 7 Norte 12 Norte 0 -- -- --
2019-10-07 05:00:00 -- 4 Nordeste 14 Norte 0 -- -- --
2019-10-07 04:00:00 -- 0 Calma 7 Nordeste 0 -- -- --
2019-10-07 03:00:00 -- 3 Nordeste 10 Nordeste 0 -- -- --
2019-10-07 02:00:00 -- 0 Calma 5 Nordeste 0 -- -- --
2019-10-07 01:00:00 -- 3 Norte 12 Noroeste 0 -- -- --
2019-10-07 00:00:00 -- 0 Calma 12 Noroeste 0 -- -- --
2019-10-06 23:00:00 -- 4 Noroeste 10 Norte 0 -- -- --
2019-10-06 22:00:00 -- 3 Noroeste 10 Noroeste 0 -- -- --
2019-10-06 21:00:00 -- 0 Calma 8 Noroeste 0 -- -- --
2019-10-06 20:00:00 -- 3 Noroeste 13 Noroeste 0 -- -- --
2019-10-06 19:00:00 -- 5 Noroeste 23 Oeste 0 -- -- --
2019-10-06 18:00:00 -- 5 Oeste 15 Oeste 0 -- -- --
2019-10-06 17:00:00 -- 6 Noroeste 17 Noroeste 0 -- -- --
2019-10-06 16:00:00 -- 8 Oeste 16 Sudoeste 0 -- -- --
2019-10-06 15:00:00 -- 10 Sudoeste 18 Sudoeste 0 -- -- --
2019-10-06 14:00:00 -- 4 Sur 8 Sur 0 -- -- --
2019-10-06 13:00:00 -- 4 Sur 11 Sudoeste 0 -- -- --
2019-10-06 12:00:00 -- 4 Sudoeste 13 Sudoeste 0 -- -- --
2019-10-06 11:00:00 -- 4 Norte 12 Noroeste 0 -- -- --
2019-10-06 10:00:00 -- 8 Norte 17 Norte 0 -- -- --
2019-10-06 09:00:00 -- 6 Noroeste 18 Noroeste 0 -- -- --
2019-10-06 08:00:00 -- 4 Nordeste 19 Noroeste 0 -- -- --
2019-10-06 07:00:00 -- 3 Norte 18 Noroeste 0 -- -- --
2019-10-06 06:00:00 -- 12 Norte 19 Norte 0 -- -- --
2019-10-06 05:00:00 -- 9 Norte 16 Norte 0 -- -- --
2019-10-06 04:00:00 -- 4 Norte 14 Noroeste 0 -- -- --
2019-10-06 03:00:00 -- 5 Norte 27 Noroeste 0 -- -- --
2019-10-06 02:00:00 -- 13 Noroeste 25 Noroeste 0 -- -- --
2019-10-06 01:00:00 -- 6 Norte 15 Norte 0 -- -- --
2019-10-06 00:00:00 -- 4 Nordeste 19 Noroeste 0 -- -- --
2019-10-05 23:00:00 -- 3 Noroeste 12 Noroeste 0 -- -- --
2019-10-05 22:00:00 -- 2 Noroeste 8 Noroeste 0 -- -- --
2019-10-05 21:00:00 -- 3 Oeste 10 Noroeste 0 -- -- --
2019-10-05 20:00:00 -- 5 Noroeste 16 Norte 0 -- -- --
2019-10-05 19:00:00 -- 8 Noroeste 20 Oeste 0 -- -- --
2019-10-05 18:00:00 -- 13 Sur 25 Sur 0 -- -- --
2019-10-05 17:00:00 -- 13 Sur 26 Sur 0 -- -- --
2019-10-05 16:00:00 -- 10 Sur 21 Sur 0 -- -- --
2019-10-05 15:00:00 -- 17 Sur 22 Sur 0 -- -- --
2019-10-05 14:00:00 -- 14 Sur 24 Sur 0 -- -- --
2019-10-05 13:00:00 -- 5 Sur 12 Sudeste 0 -- -- --
2019-10-05 12:00:00 -- 3 Sur 6 Sudoeste 0 -- -- --
2019-10-05 11:00:00 -- 3 Sur 9 Norte 0 -- -- --
2019-10-05 10:00:00 -- 3 Norte 11 Norte 0 -- -- --
2019-10-05 09:00:00 -- 6 Norte 13 Norte 0 -- -- --
2019-10-05 08:00:00 -- 7 Norte 11 Norte 0 -- -- --
2019-10-05 07:00:00 -- 0 Calma 8 Norte 0 -- -- --
2019-10-05 06:00:00 -- 4 Norte 11 Norte 0 -- -- --
2019-10-05 05:00:00 -- 0 Calma 11 Norte 0 -- -- --
2019-10-05 04:00:00 -- 6 Norte 10 Norte 0 -- -- --
2019-10-05 03:00:00 -- 2 Nordeste 12 Norte 0 -- -- --
2019-10-05 02:00:00 -- 6 Norte 12 Norte 0 -- -- --
2019-10-05 01:00:00 -- 4 Norte 9 Norte 0 -- -- --
2019-10-05 00:00:00 -- 2 Norte 7 Norte 0 -- -- --
2019-10-04 23:00:00 -- 3 Nordeste 12 Norte 0 -- -- --
2019-10-04 22:00:00 -- 3 Norte 9 Norte 0 -- -- --
2019-10-04 21:00:00 -- 0 Calma 5 Noroeste 0 -- -- --
2019-10-04 20:00:00 -- 3 Norte 14 Noroeste 0 -- -- --
2019-10-04 19:00:00 -- 5 Noroeste 18 Noroeste 0 -- -- --
2019-10-04 18:00:00 -- 8 Noroeste 21 Noroeste 0 -- -- --
2019-10-04 17:00:00 -- 4 Sudoeste 18 Sur 0 -- -- --
2019-10-04 16:00:00 -- 13 Sur 19 Sur 0 -- -- --
2019-10-04 15:00:00 -- 10 Sur 17 Sur 0 -- -- --
2019-10-04 14:00:00 -- 5 Sur 11 Sur 0 -- -- --
2019-10-04 13:00:00 -- 5 Sur 10 Sudoeste 0 -- -- --
2019-10-04 12:00:00 -- 3 Sur 8 Sur 0 -- -- --
2019-10-04 11:00:00 -- 2 Sur 4 Sudeste 0 -- -- --
2019-10-04 10:00:00 -- 0 Calma 3 Norte 0 -- -- --
2019-10-04 09:00:00 -- 0 Calma 5 Noroeste 0 -- -- --
2019-10-04 08:00:00 -- 0 Calma 3 Nordeste 0 -- -- --
2019-10-04 07:00:00 -- 0 Calma 2 Este 0 -- -- --
2019-10-04 06:00:00 -- 0 Calma 3 Sudeste 0 -- -- --
2019-10-04 05:00:00 -- 0 Calma 7 Norte 0 -- -- --
2019-10-04 04:00:00 -- 0 Calma 5 Nordeste 0 -- -- --
2019-10-04 03:00:00 -- 0 Calma 4 Este 0 -- -- --
2019-10-04 02:00:00 -- 2 Nordeste 6 Norte 0 -- -- --
2019-10-04 01:00:00 -- 0 Calma 5 Nordeste 0 -- -- --
2019-10-04 00:00:00 -- 3 Nordeste 14 Norte 0 -- -- --
2019-10-03 23:00:00 -- 3 Nordeste 11 Noroeste 0 -- -- --
2019-10-03 22:00:00 -- 3 Noroeste 9 Norte 0 -- -- --
2019-10-03 21:00:00 -- 2 Noroeste 12 Noroeste 0 -- -- --
2019-10-03 20:00:00 -- 8 Noroeste 20 Noroeste 0 -- -- --
2019-10-03 19:00:00 -- 6 Noroeste 16 Noroeste 0 -- -- --
2019-10-03 18:00:00 -- 6 Oeste 17 Oeste 0 -- -- --
2019-10-03 17:00:00 -- 6 Sudoeste 14 Noroeste 0 -- -- --
2019-10-03 16:00:00 -- 6 Sur 13 Sur 0 -- -- --
2019-10-03 15:00:00 -- 5 Sur 9 Sur 0 -- -- --
2019-10-03 14:00:00 -- 5 Sudoeste 9 Sur 0 -- -- --
2019-10-03 13:00:00 -- 3 Sur 8 Sur 0 -- -- --
2019-10-03 12:00:00 -- 3 Sur 6 Sur 0 -- -- --
2019-10-03 11:00:00 -- 2 Sur 6 Oeste 0 -- -- --
2019-10-03 10:00:00 -- 3 Noroeste 17 Norte 0 -- -- --
2019-10-03 09:00:00 -- 9 Norte 13 Norte 0 -- -- --
2019-10-03 08:00:00 -- 7 Norte 10 Norte 0 -- -- --
2019-10-03 07:00:00 -- 5 Norte 12 Norte 0 -- -- --
2019-10-03 06:00:00 -- 10 Norte 15 Nordeste 0 -- -- --
2019-10-03 05:00:00 -- 5 Norte 13 Norte 0 -- -- --
2019-10-03 04:00:00 -- 0 Calma 6 Norte 0 -- -- --
2019-10-03 03:00:00 -- 5 Norte 7 Noroeste 0 -- -- --
2019-10-03 02:00:00 -- 0 Calma 10 Norte 0 -- -- --
2019-10-03 01:00:00 -- 4 Nordeste 9 Norte 0 -- -- --
2019-10-03 00:00:00 -- 0 Calma 6 Norte 0 -- -- --
2019-10-02 23:00:00 -- 2 Nordeste 4 Este 0 -- -- --
2019-10-02 22:00:00 -- 0 Calma 6 Nordeste 0 -- -- --
2019-10-02 21:00:00 -- 0 Calma 10 Noroeste 0 -- -- --
2019-10-02 20:00:00 -- 3 Oeste 14 Noroeste 0 -- -- --
2019-10-02 19:00:00 -- 7 Noroeste 16 Noroeste 0 -- -- --
2019-10-02 18:00:00 -- 4 Noroeste 18 Sudoeste 0 -- -- --
2019-10-02 17:00:00 -- 7 Oeste 20 Este 0 -- -- --
2019-10-02 16:00:00 -- 6 Norte 23 Norte 0 -- -- --
2019-10-02 15:00:00 -- 12 Norte 25 Norte 0 -- -- --
2019-10-02 14:00:00 -- 19 Nordeste 33 Nordeste 0 -- -- --
2019-10-02 13:00:00 -- 15 Nordeste 24 Norte 0 -- -- --
2019-10-02 12:00:00 -- 7 Nordeste 20 Norte 0 -- -- --
2019-10-02 11:00:00 -- 5 Norte 14 Noroeste 0 -- -- --
2019-10-02 10:00:00 -- 4 Nordeste 13 Norte 0 -- -- --
2019-10-02 09:00:00 -- 3 Nordeste 12 Noroeste 0 -- -- --
2019-10-02 08:00:00 -- 5 Norte 17 Noroeste 0 -- -- --
2019-10-02 07:00:00 -- 6 Oeste 29 Noroeste 0 -- -- --
2019-10-02 06:00:00 -- 4 Norte 19 Noroeste 0 -- -- --
2019-10-02 05:00:00 -- 2 Sudeste 12 Noroeste 0 -- -- --
2019-10-02 04:00:00 -- 3 Oeste 16 Norte 0 -- -- --
2019-10-02 03:00:00 -- 3 Norte 13 Noroeste 0 -- -- --
2019-10-02 02:00:00 -- 4 Noroeste 22 Noroeste 0 -- -- --
2019-10-02 01:00:00 -- 6 Oeste 22 Oeste 0 -- -- --
2019-10-02 00:00:00 -- 7 Noroeste 25 Noroeste 0 -- -- --
2019-10-01 23:00:00 -- 4 Noroeste 19 Noroeste 0 -- -- --
2019-10-01 22:00:00 -- 4 Noroeste 18 Noroeste 0 -- -- --
2019-10-01 21:00:00 -- 6 Noroeste 16 Noroeste 0 -- -- --
2019-10-01 20:00:00 -- 2 Oeste 18 Oeste 0 -- -- --
2019-10-01 19:00:00 -- 4 Oeste 26 Oeste 0 -- -- --
2019-10-01 18:00:00 -- 6 Oeste 23 Sudoeste 0 -- -- --
2019-10-01 17:00:00 -- 8 Oeste 23 Oeste 0 -- -- --
2019-10-01 16:00:00 -- 8 Oeste 27 Noroeste 0 -- -- --
2019-10-01 15:00:00 -- 10 Norte 30 Norte 0 -- -- --
2019-10-01 14:00:00 -- 14 Noroeste 32 Norte 0 -- -- --
2019-10-01 13:00:00 -- 6 Noroeste 26 Norte 0 -- -- --
2019-10-01 12:00:00 -- 4 Sudeste 8 Oeste 0 -- -- --
2019-10-01 11:00:00 -- 2 Norte 14 Oeste 0 -- -- --
2019-10-01 10:00:00 -- 3 Este 12 Sur 0 -- -- --
2019-10-01 09:00:00 -- 3 Sur 10 Norte 0 -- -- --
2019-10-01 08:00:00 -- 0 Calma 11 Noroeste 0 -- -- --
2019-10-01 07:00:00 -- 4 Nordeste 6 Nordeste 0 -- -- --
2019-10-01 06:00:00 -- 2 Este 6 Nordeste 0 -- -- --
2019-10-01 05:00:00 -- 2 Oeste 6 Nordeste 0 -- -- --
2019-10-01 04:00:00 -- 2 Nordeste 5 Nordeste 0 -- -- --
2019-10-01 03:00:00 -- 6 Norte 13 Norte 0 -- -- --
2019-10-01 02:00:00 -- 4 Norte 8 Norte 0 -- -- --
2019-10-01 01:00:00 -- 0 Calma 8 Nordeste 0 -- -- --
2019-10-01 00:00:00 -- 0 Calma 5 Este 0 -- -- --
2019-09-30 23:00:00 -- 3 Este 5 Este 0 -- -- --
2019-09-30 22:00:00 -- 0 Calma 5 Este 0 -- -- --
2019-09-30 21:00:00 -- 2 Nordeste 12 Norte 0 -- -- --
2019-09-30 20:00:00 -- 5 Sudoeste 23 Sudoeste 0 -- -- --
2019-09-30 19:00:00 -- 11 Sudoeste 25 Sur 0 -- -- --
2019-09-30 18:00:00 -- 14 Sur 26 Sudoeste 0 -- -- --
2019-09-30 17:00:00 -- 16 Sur 25 Sur 0 -- -- --
2019-09-30 16:00:00 -- 18 Sur 30 Sur 0 -- -- --
2019-09-30 15:00:00 -- 17 Sur 27 Sudoeste 0 -- -- --
2019-09-30 14:00:00 -- 15 Sur 24 Sur 0 -- -- --
2019-09-30 13:00:00 -- 14 Sur 22 Sur 0 -- -- --
2019-09-30 12:00:00 -- 3 Sur 6 Sur 0 -- -- --
2019-09-30 11:00:00 -- 3 Sur 6 Norte 0 -- -- --
2019-09-30 10:00:00 -- 4 Norte 10 Norte 0 -- -- --
2019-09-30 09:00:00 -- 6 Norte 13 Norte 0 -- -- --
2019-09-30 08:00:00 -- 12 Norte 14 Norte 0 -- -- --
2019-09-30 07:00:00 -- 3 Nordeste 10 Norte 0 -- -- --
2019-09-30 06:00:00 -- 4 Norte 9 Norte 0 -- -- --
2019-09-30 05:00:00 -- 5 Nordeste 12 Norte 0 -- -- --
2019-09-30 04:00:00 -- 4 Nordeste 11 Norte 0 -- -- --
2019-09-30 03:00:00 -- 4 Noroeste 13 Norte 0 -- -- --
2019-09-30 02:00:00 -- 0 Calma 15 Norte 0 -- -- --
2019-09-30 01:00:00 -- 0 Calma 7 Nordeste 0 -- -- --
2019-09-30 00:00:00 -- 3 Sudoeste 19 Noroeste 0 -- -- --
2019-09-29 23:00:00 -- 13 Noroeste 33 Norte 0 -- -- --
2019-09-29 22:00:00 -- 3 Noroeste 14 Oeste 0 -- -- --
2019-09-29 21:00:00 -- 3 Noroeste 12 Oeste 0 -- -- --
2019-09-29 20:00:00 -- 3 Oeste 15 Noroeste 0 -- -- --
2019-09-29 19:00:00 -- 6 Oeste 18 Oeste 0 -- -- --
2019-09-29 18:00:00 -- 6 Oeste 22 Oeste 0 -- -- --
2019-09-29 17:00:00 -- 6 Oeste 23 Noroeste 0 -- -- --
2019-09-29 16:00:00 -- 10 Oeste 27 Oeste 0 -- -- --
2019-09-29 15:00:00 -- 6 Noroeste 32 Sudoeste 0 -- -- --
2019-09-29 14:00:00 -- 3 Norte 11 Sudoeste 0 -- -- --
2019-09-29 13:00:00 33.2 3 Sudeste 8 Sudeste 0 -- -- 24
2019-09-29 12:00:00 32.3 2 Sur 6 Sur 0 -- -- 24
2019-09-29 11:00:00 28.4 2 Sur 6 Sur 0 -- -- 28
2019-09-29 10:00:00 22.1 2 Este 5 Norte 0 -- -- 35
2019-09-29 09:00:00 4.7 6 Nordeste 14 Norte 0 -- -- 93
2019-09-29 08:00:00 4.1 0 Calma 4 Nordeste 0 -- -- 93
2019-09-29 07:00:00 4.2 0 Calma 13 Norte 0 -- -- 90
2019-09-29 06:00:00 4.4 0 Calma 8 Norte 0 -- -- 88
2019-09-29 05:00:00 4.7 4 Nordeste 6 Norte 0 -- -- 85
2019-09-29 04:00:00 5.6 2 Nordeste 9 Noroeste 0 -- -- 83
2019-09-29 03:00:00 6.2 2 Noroeste 10 Noroeste 0 -- -- 76
2019-09-29 02:00:00 6.8 4 Norte 11 Norte 0 -- -- 79
2019-09-29 01:00:00 8.1 0 Calma 5 Nordeste 0 -- -- 71
2019-09-29 00:00:00 9 2 Este 4 Sudeste 0 -- -- 68
2019-09-28 23:00:00 10.3 0 Calma 8 Sur 0 -- -- 65
2019-09-28 22:00:00 12 3 Sur 9 Sur 0 -- -- 60
2019-09-28 21:00:00 13.7 2 Sur 13 Sur 0 -- -- 57
2019-09-28 20:00:00 17.3 9 Sur 21 Sudoeste 0 -- -- 53
2019-09-28 19:00:00 21.4 13 Sur 22 Sur 0 -- -- 44
2019-09-28 18:00:00 23.6 18 Sur 30 Sur 0 -- -- 35
2019-09-28 17:00:00 24.5 18 Sur 30 Sur 0 -- -- 32
2019-09-28 16:00:00 25 13 Sur 26 Sur 0 -- -- 33
2019-09-28 15:00:00 24.1 13 Sur 24 Sur 0 -- -- 35
2019-09-28 14:00:00 23.6 15 Sur 23 Sudoeste 0 -- -- 39
2019-09-28 13:00:00 28.1 10 Sur 16 Sur 0 -- -- 31
2019-09-28 12:00:00 29.4 3 Sur 7 Sudoeste 0 -- -- 31
2019-09-28 11:00:00 26.1 3 Sur 6 Sur 0 -- -- 33
2019-09-28 10:00:00 20.8 0 Calma 12 Norte 0 -- -- 43
2019-09-28 09:00:00 3.1 6 Norte 14 Norte 0 -- -- 100
2019-09-28 08:00:00 3.2 3 Norte 12 Norte 0 -- -- 100
2019-09-28 07:00:00 3.5 8 Norte 12 Norte 0 -- -- 100
2019-09-28 06:00:00 3.8 4 Nordeste 12 Norte 0 -- -- 100
2019-09-28 05:00:00 4.4 7 Norte 11 Norte 0 -- -- 100
2019-09-28 04:00:00 5.3 4 Norte 10 Norte 0 -- -- 100
2019-09-28 03:00:00 5.9 3 Noroeste 8 Nordeste 0 -- -- 100
2019-09-28 02:00:00 6.7 2 Norte 6 Noroeste 0 -- -- 100
2019-09-28 01:00:00 6.8 0 Calma 4 Nordeste 0 -- -- 100
2019-09-28 00:00:00 7.8 0 Calma 9 Norte 0 -- -- 100
2019-09-27 23:00:00 8.8 0 Calma 10 Noroeste 0 -- -- 94
2019-09-27 22:00:00 10.4 0 Calma 5 Noroeste 0 -- -- 87
2019-09-27 21:00:00 12.1 0 Calma 11 Noroeste 0 -- -- 77
2019-09-27 20:00:00 14.9 4 Oeste 14 Noroeste 0 -- -- 65
2019-09-27 19:00:00 17.6 6 Oeste 18 Noroeste 0 -- -- 58
2019-09-27 18:00:00 20.3 7 Oeste 22 Oeste 0 -- -- 50
2019-09-27 17:00:00 20.8 7 Noroeste 24 Oeste 0 -- -- 52
2019-09-27 16:00:00 21.7 7 Oeste 24 Norte 0 -- -- 51
2019-09-27 15:00:00 22.8 9 Oeste 20 Noroeste 0 -- -- 46
2019-09-27 14:00:00 22.8 5 Oeste 18 Oeste 0 -- -- 49
2019-09-27 13:00:00 23.3 5 Sur -- -- -- -- -- 46
2019-09-27 12:00:00 -- -- -- -- -- -- -- -- --
2019-09-27 11:00:00 -- -- -- -- -- -- -- -- --
2019-09-27 10:00:00 13 2 Sudoeste 12 Norte 0 -- -- 69
2019-09-27 09:00:00 8.1 8 Norte 13 Norte 0 -- -- 89
2019-09-27 08:00:00 6.9 2 Nordeste 11 Noroeste 0 -- -- 93
2019-09-27 07:00:00 7 3 Norte 12 Norte 0 -- -- 87
2019-09-27 06:00:00 6.7 4 Noroeste 9 Noroeste 0 -- -- 87
2019-09-27 05:00:00 7.6 2 Norte 6 Norte 0 -- -- 83
2019-09-27 04:00:00 7.4 0 Calma 8 Norte 0 -- -- 81
2019-09-27 03:00:00 7.6 3 Nordeste 12 Norte 0 -- -- 79
2019-09-27 02:00:00 8.5 4 Norte 8 Norte 0 -- -- 76
2019-09-27 01:00:00 9.4 0 Calma 7 Norte 0 -- -- 77
2019-09-27 00:00:00 10.2 0 Calma 4 Nordeste 0 -- -- 78
2019-09-26 23:00:00 11.6 0 Calma 6 Nordeste 0 -- -- 73
2019-09-26 22:00:00 13 3 Este 8 Este 0 -- -- 68
2019-09-26 21:00:00 15.4 6 Nordeste 9 Este 0 -- -- 58
2019-09-26 20:00:00 18.7 5 Sudoeste 22 Oeste 0 -- -- 50
2019-09-26 19:00:00 22.2 7 Oeste 26 Sudoeste 0 -- -- 28
2019-09-26 18:00:00 24.9 8 Oeste 20 Sudoeste 0 -- -- 26
2019-09-26 17:00:00 24.8 6 Sur 13 Sur 0 -- -- 29
2019-09-26 16:00:00 24.1 11 Sur 20 Sur 0 -- -- 31
2019-09-26 15:00:00 22.9 14 Sur 22 Sur 0 -- -- 36
2019-09-26 14:00:00 21.4 12 Sur 17 Sur 0 -- -- 40
2019-09-26 13:00:00 19.2 4 Sudoeste 9 Sudoeste 0 -- -- 45
2019-09-26 12:00:00 16.7 5 Sur 9 Sudoeste 0 -- -- 59
2019-09-26 11:00:00 14.6 3 Sur 10 Norte 0 -- -- 69
2019-09-26 10:00:00 11.3 7 Norte 10 Norte 0 -- -- 84
2019-09-26 09:00:00 6.3 4 Norte 8 Norte 0 -- -- 100
2019-09-26 08:00:00 6.5 4 Noroeste 9 Norte 0 -- -- 100
2019-09-26 07:00:00 7.1 3 Noroeste 11 Norte 0 -- -- 100
2019-09-26 06:00:00 7.5 7 Norte 15 Norte 0 -- -- 100
2019-09-26 05:00:00 8 9 Norte 13 Norte 0 -- -- 100
2019-09-26 04:00:00 8.4 4 Nordeste 11 Norte 0 -- -- 100
2019-09-26 03:00:00 8.9 4 Nordeste 13 Noroeste 0 -- -- 99
2019-09-26 02:00:00 9.2 7 Nordeste 13 Norte 0 -- -- 100
2019-09-26 01:00:00 9.9 4 Nordeste 10 Norte 0 -- -- 96
2019-09-26 00:00:00 9.7 2 Nordeste 11 Norte 0 -- -- 98
2019-09-25 23:00:00 10.5 2 Nordeste 6 Este 0 -- -- 95
2019-09-25 22:00:00 12.3 3 Norte 11 Noroeste 0 -- -- 83
2019-09-25 21:00:00 14.1 3 Noroeste 13 Sudoeste 0 -- -- 74
2019-09-25 20:00:00 16.4 5 Oeste 15 Sudoeste 0 -- -- 65
2019-09-25 19:00:00 19 6 Oeste 17 Oeste 0 -- -- 57
2019-09-25 18:00:00 19.5 4 Sur 12 Sur 0 -- -- 54
2019-09-25 17:00:00 20 5 Sur 10 Sur 0 -- -- 52
2019-09-25 16:00:00 20.5 5 Sudoeste 9 Sudoeste 0 -- -- 48
2019-09-25 15:00:00 19.6 5 Sudoeste 10 Sudoeste 0 -- -- 49
2019-09-25 14:00:00 18.2 4 Sudoeste 9 Sur 0 -- -- 52
2019-09-25 13:00:00 16.5 5 Sur 8 Sur 0 -- -- 57
2019-09-25 12:00:00 15.6 4 Sur 10 Sur 0 -- -- 61
2019-09-25 11:00:00 13.4 6 Sur 17 Sur 0 -- -- 68
2019-09-25 10:00:00 12.6 3 Este 7 Sudeste 0 -- -- 73
2019-09-25 09:00:00 8.7 5 Norte 13 Noroeste 0 -- -- 91
2019-09-25 08:00:00 8.5 4 Norte 13 Norte 0 -- -- 91
2019-09-25 07:00:00 9 3 Noroeste 10 Norte 0 -- -- 89
2019-09-25 06:00:00 8.1 2 Nordeste 7 Noroeste 0 -- -- 91
2019-09-25 05:00:00 8.4 0 Calma 12 Norte 0 -- -- 86
2019-09-25 04:00:00 8.9 3 Noroeste 14 Oeste 0 -- -- 81
2019-09-25 03:00:00 8.3 3 Noroeste 13 Oeste 0 -- -- 86
2019-09-25 02:00:00 9.5 4 Oeste 13 Oeste 0 -- -- 77
2019-09-25 01:00:00 9.7 4 Noroeste 13 Noroeste 0 -- -- 74
2019-09-25 00:00:00 10.3 4 Noroeste 29 Noroeste 0 -- -- 68
2019-09-24 23:00:00 11.3 10 Noroeste 28 Noroeste 0 -- -- 67
2019-09-24 22:00:00 12.5 4 Noroeste 15 Sur 0 -- -- 66
2019-09-24 21:00:00 13.7 6 Sudoeste 14 Oeste 0 -- -- 67
2019-09-24 20:00:00 15.1 9 Oeste 23 Oeste 0 -- -- 56
2019-09-24 19:00:00 16.9 17 Sudoeste 27 Oeste 0 -- -- 53
2019-09-24 18:00:00 20.3 9 Sudoeste 30 Oeste 0 -- -- 44
2019-09-24 17:00:00 21.1 13 Sudoeste 33 Oeste 0 -- -- 43
2019-09-24 16:00:00 19.9 17 Sudoeste 44 Sur 0 -- -- 52
2019-09-24 15:00:00 19.6 19 Sudoeste 33 Sudoeste 0 -- -- 59
2019-09-24 14:00:00 16.2 19 Sur 35 Sur 0 -- -- 88
2019-09-24 13:00:00 16.8 21 Sur 32 Sur 0 -- -- 81
2019-09-24 12:00:00 15 22 Sur 37 Sur 0 -- -- 92
2019-09-24 11:00:00 13.8 26 Sur 35 Sur 0 -- -- 98
2019-09-24 10:00:00 13.6 19 Sur 26 Sudoeste 0 -- -- 99
2019-09-24 09:00:00 13 15 Sur 26 Sur 0 -- -- 100
2019-09-24 08:00:00 12.9 12 Sur 25 Sur 0 -- -- 98
2019-09-24 07:00:00 13.5 17 Sudeste 28 Sur 0 -- -- 90
2019-09-24 06:00:00 13.6 12 Sudeste 24 Sudeste 0 -- -- 92
2019-09-24 05:00:00 14.5 8 Sudeste 30 Sur 0 -- -- 84
2019-09-24 04:00:00 14.8 10 Sur 25 Sudeste 0 -- -- 80
2019-09-24 03:00:00 14 14 Sudoeste 26 Sur 0 -- -- 81
2019-09-24 02:00:00 14.6 13 Sur 32 Este 0 -- -- 75
2019-09-24 01:00:00 14.2 10 Sur 22 Sur 0 -- -- 81
2019-09-24 00:00:00 14.2 9 Sur 14 Sudeste 0 -- -- 83
2019-09-23 23:00:00 13.9 8 Sudeste 16 Sur 0 -- -- 82
2019-09-23 22:00:00 13.9 5 Sur 8 Sudoeste 0 -- -- 84
2019-09-23 21:00:00 13.8 6 Sudeste 13 Sudeste 0 -- -- 80
2019-09-23 20:00:00 13.9 4 Sur 14 Sudoeste 0 -- -- 79
2019-09-23 19:00:00 14.8 3 Sudoeste 26 Sur 0 -- -- 69
2019-09-23 18:00:00 15.8 24 Sur 37 Sudeste 0 -- -- 63
2019-09-23 17:00:00 16.8 12 Sur 23 Sur 0 -- -- 59
2019-09-23 16:00:00 16.9 19 Sur 28 Sudoeste 0 -- -- 58
2019-09-23 15:00:00 16.4 18 Sur 29 Sur 0 -- -- 56
2019-09-23 14:00:00 16.2 10 Sur 23 Sur 0 -- -- 60
2019-09-23 13:00:00 13.5 13 Sur 27 Sur 0 -- -- 71
2019-09-23 12:00:00 13 18 Sur 22 Sur 0 -- -- 71
2019-09-23 11:00:00 11.1 2 Sur 7 Sur 0 -- -- 86
2019-09-23 10:00:00 9.8 0 Calma 4 Sur 0 -- -- 95
2019-09-23 09:00:00 7.9 2 Noroeste 8 Noroeste 0 -- -- 100
2019-09-23 08:00:00 7.3 2 Oeste 8 Norte 0 -- -- 100
2019-09-23 07:00:00 6.8 0 Calma 9 Norte 0 -- -- 100
2019-09-23 06:00:00 6.6 2 Nordeste 4 Norte 0 -- -- 100
2019-09-23 05:00:00 6.4 3 Norte 9 Noroeste 0 -- -- 100
2019-09-23 04:00:00 6.5 0 Calma 8 Este 0 -- -- 100
2019-09-23 03:00:00 6.1 4 Norte 11 Norte 0 -- -- 100
2019-09-23 02:00:00 6.5 3 Este 5 Nordeste 0 -- -- 100
2019-09-23 01:00:00 7.4 0 Calma 4 Nordeste 0 -- -- 100
2019-09-23 00:00:00 7.7 2 Norte 6 Nordeste 0 -- -- 94
2019-09-22 23:00:00 8.5 3 Este 6 Nordeste 0 -- -- 95
2019-09-22 22:00:00 8.8 0 Calma 5 Nordeste 0 -- -- 91
2019-09-22 21:00:00 9.8 4 Nordeste 8 Oeste 0 -- -- 85
2019-09-22 20:00:00 13.7 4 Oeste 17 Oeste 0 -- -- 64
2019-09-22 19:00:00 14.3 5 Noroeste 26 Oeste 0 -- -- 61
2019-09-22 18:00:00 17.9 4 Oeste 16 Noroeste 0 -- -- 46
2019-09-22 17:00:00 18.5 5 Sudoeste 12 Oeste 0 -- -- 46
2019-09-22 16:00:00 16.4 5 Oeste 17 Sudoeste 0 -- -- 49
2019-09-22 15:00:00 17.5 6 Oeste 18 Sudoeste 0 -- -- 50
2019-09-22 14:00:00 15.7 9 Sudoeste 19 Sur 0 -- -- 55
2019-09-22 13:00:00 14 9 Sur 15 Sur 0 -- -- 59
2019-09-22 12:00:00 11.8 6 Sudeste 20 Sur 0 -- -- 67
2019-09-22 11:00:00 11.6 7 Sur 25 Sur 0 -- -- 71
2019-09-22 10:00:00 10.2 16 Sudoeste 24 Sur 0 -- -- 79
2019-09-22 09:00:00 9.1 18 Sudoeste 23 Sudoeste 0 -- -- 96
2019-09-22 08:00:00 8.9 9 Sur 26 Sur 0 -- -- 97
2019-09-22 07:00:00 9.5 13 Sur 24 Sur 0 -- -- 94
2019-09-22 06:00:00 10.2 14 Sur 22 Sur 0 -- -- 93
2019-09-22 05:00:00 10 13 Sur 22 Sur 0 -- -- 93
2019-09-22 04:00:00 9 4 Sudeste 13 Este 0 -- -- 93
2019-09-22 03:00:00 7.4 4 Este 13 Este 0 -- -- 97
2019-09-22 02:00:00 9.4 7 Este 29 Sudoeste 0 -- -- 87
2019-09-22 01:00:00 11.2 24 Sur 36 Sur 0.2 -- -- 81
2019-09-22 00:00:00 11.3 8 Sudoeste 50 Sudoeste 3.8 -- -- 99
2019-09-21 23:00:00 13.5 23 Sur 57 Sur 0.6 -- -- 100
2019-09-21 22:00:00 13.8 21 Sur 55 Sur 0.6 -- -- 100
2019-09-21 21:00:00 13.8 24 Sur 72 Sur 1.8 -- -- 100
2019-09-21 20:00:00 14.1 22 Sudeste 48 Sur 3.8 -- -- 100
2019-09-21 19:00:00 14 23 Sudeste 45 Sudeste 0.2 -- -- 100
2019-09-21 18:00:00 14.1 26 Sur 55 Sur 1.2 -- -- 100
2019-09-21 17:00:00 13.6 14 Sudeste 37 Sudeste 0.4 -- -- 100
2019-09-21 16:00:00 13.7 14 Sudeste 41 Sudoeste 0 -- -- 100
2019-09-21 15:00:00 13.7 14 Sudeste 41 Sudeste 0 -- -- 98
2019-09-21 14:00:00 13 17 Sudeste 42 Sur 0.2 -- -- 100
2019-09-21 13:00:00 13.3 19 Sur 43 Sur 0.2 -- -- 99
2019-09-21 12:00:00 13.3 12 Sudeste 35 Sur 0.4 -- -- 98
2019-09-21 11:00:00 12.7 19 Sur 43 Sur 0 -- -- 97
2019-09-21 10:00:00 12.9 13 Sudeste 37 Sur 0 -- -- 92
2019-09-21 09:00:00 12.5 13 Sudeste 34 Sur 0 -- -- 93
2019-09-21 08:00:00 12.7 13 Sur 30 Sudoeste 0 -- -- 89
2019-09-21 07:00:00 13.3 15 Sur 42 Sudoeste 0 -- -- 84
2019-09-21 06:00:00 13.9 18 Sur 40 Sudeste 0 -- -- 83
2019-09-21 05:00:00 14.4 13 Sur 42 Sudeste 0 -- -- 82
2019-09-21 04:00:00 14.8 21 Sudeste 52 Sudeste 0 -- -- 84
2019-09-21 03:00:00 15.2 14 Sudeste 34 Sudoeste 0 -- -- 82
2019-09-21 02:00:00 15.6 15 Sudeste 36 Sudoeste 0 -- -- 78
2019-09-21 01:00:00 15.8 19 Sudoeste 30 Sur 0 -- -- 80
2019-09-21 00:00:00 16.4 15 Sudoeste 27 Sur 0 -- -- 75
2019-09-20 23:00:00 17.3 12 Este 34 Este 0 -- -- 66
2019-09-20 22:00:00 17.7 7 Sur 14 Sur 0 -- -- 67
2019-09-20 21:00:00 18.7 11 Sudoeste 21 Este 0 -- -- 59
2019-09-20 20:00:00 19.5 11 Sudeste 22 Sudeste 0 -- -- 53
2019-09-20 19:00:00 20.8 9 Sur 33 Sur 0 -- -- 55
2019-09-20 18:00:00 21.9 20 Sur 39 Sudoeste 0 -- -- 51
2019-09-20 17:00:00 22.8 24 Sur 43 Sur 0 -- -- 53
2019-09-20 16:00:00 23.4 21 Sur 33 Sur 0 -- -- 53
2019-09-20 15:00:00 22.8 13 Este 35 Sur 0 -- -- 56
2019-09-20 14:00:00 22.2 17 Sur 35 Sur 0 -- -- 59
2019-09-20 13:00:00 21.4 12 Sur 27 Sur 0 -- -- 63
2019-09-20 12:00:00 20.3 4 Sur 7 Sur 0 -- -- 64
2019-09-20 11:00:00 16.3 3 Sur 7 Sur 0 -- -- 84
2019-09-20 10:00:00 13.9 2 Este 5 Noroeste 0 -- -- 100
2019-09-20 09:00:00 9.1 0 Calma 10 Noroeste 0 -- -- 100
2019-09-20 08:00:00 8.5 5 Norte 12 Norte 0 -- -- 100
2019-09-20 07:00:00 8.8 10 Norte 14 Norte 0 -- -- 100
2019-09-20 06:00:00 9.2 4 Norte 9 Norte 0 -- -- 100
2019-09-20 05:00:00 9.4 5 Norte 10 Noroeste 0 -- -- 100
2019-09-20 04:00:00 9.8 4 Noroeste 11 Norte 0 -- -- 100
2019-09-20 03:00:00 10.5 0 Calma 12 Norte 0 -- -- 100
2019-09-20 02:00:00 10.7 9 Norte 12 Norte 0 -- -- 100
2019-09-20 01:00:00 11.3 6 Norte 12 Norte 0 -- -- 100
2019-09-20 00:00:00 12.1 4 Norte 9 Norte 0 -- -- 100
2019-09-19 23:00:00 12.6 6 Norte 12 Norte 0 -- -- 100
2019-09-19 22:00:00 13.5 2 Este 11 Norte 0 -- -- 99
2019-09-19 21:00:00 14.7 6 Norte 12 Norte 0 -- -- 92
2019-09-19 20:00:00 16.1 9 Noroeste 15 Norte 0 -- -- 83
2019-09-19 19:00:00 18.1 5 Noroeste 13 Oeste 0 -- -- 69
2019-09-19 18:00:00 16.8 6 Noroeste 30 Noroeste 0 -- -- 72
2019-09-19 17:00:00 21.2 2 Este 19 Este 0 -- -- 53
2019-09-19 16:00:00 23.3 17 Nordeste 31 Este 0 -- -- 48
2019-09-19 15:00:00 20 10 Nordeste 16 Nordeste 0.2 -- -- 67
2019-09-19 14:00:00 23.4 5 Sur 8 Sur 0 -- -- 54
2019-09-19 13:00:00 22.1 4 Sur 7 Sur 0 -- -- 62
2019-09-19 12:00:00 19 3 Sur 8 Sur 0 -- -- 73
2019-09-19 11:00:00 16.1 4 Sudoeste 7 Sudoeste 0 -- -- 86
2019-09-19 10:00:00 13.2 5 Norte 10 Norte 0 -- -- 100
2019-09-19 09:00:00 9.4 8 Norte 13 Norte 0.2 -- -- 100
2019-09-19 08:00:00 9.2 7 Norte 12 Norte 0 -- -- 100
2019-09-19 07:00:00 9.7 4 Norte 13 Norte 0 -- -- 100
2019-09-19 06:00:00 10.5 2 Noroeste 10 Norte 0 -- -- 100
2019-09-19 05:00:00 10.5 6 Norte 10 Norte 0 -- -- 100
2019-09-19 04:00:00 11 2 Norte 9 Norte 0 -- -- 100
2019-09-19 03:00:00 11.4 6 Norte 9 Norte 0 -- -- 100
2019-09-19 02:00:00 12 3 Norte 9 Norte 0 -- -- 100
2019-09-19 01:00:00 12.5 8 Norte 12 Norte 0 -- -- 100
2019-09-19 00:00:00 13.3 10 Norte 12 Norte 0 -- -- 100
2019-09-18 23:00:00 14.2 8 Norte 11 Norte 0 -- -- 100
2019-09-18 22:00:00 14.6 0 Calma 7 Nordeste 0 -- -- 100
2019-09-18 21:00:00 15.7 3 Noroeste 5 Oeste 0 -- -- 94
2019-09-18 20:00:00 16.2 3 Norte 10 Noroeste 0 -- -- 95
2019-09-18 19:00:00 17.4 0 Calma 9 Norte 1.2 -- -- 96
2019-09-18 18:00:00 -- 11 Nordeste 35 Nordeste 3.8 -- -- 72
2019-09-18 17:00:00 23.6 6 Sur 11 Sur 0 -- -- 52
2019-09-18 16:00:00 22.8 7 Sur 16 Sudoeste 0 -- -- 59
2019-09-18 15:00:00 21.2 14 Sudoeste 20 Sur 0 -- -- 65
2019-09-18 14:00:00 20.4 3 Sur 8 Sur 0 -- -- 61
2019-09-18 13:00:00 21.4 3 Sudeste 14 Noroeste 0 -- -- 59
2019-09-18 12:00:00 20 5 Noroeste 14 Noroeste 0 -- -- 70
2019-09-18 11:00:00 13.7 6 Norte 12 Norte 0 -- -- 100
2019-09-18 10:00:00 12.2 5 Norte 13 Norte 0 -- -- 100
2019-09-18 09:00:00 11.5 4 Norte 14 Norte 0 -- -- 100
2019-09-18 08:00:00 11 5 Norte 11 Norte 0.2 -- -- 100
2019-09-18 07:00:00 11.2 4 Noroeste 10 Norte 0 -- -- 100
2019-09-18 06:00:00 11.2 2 Nordeste 8 Norte 0 -- -- 100
2019-09-18 05:00:00 11.1 6 Este 9 Norte 0 -- -- 100
2019-09-18 04:00:00 11.7 4 Noroeste 10 Noroeste 0 -- -- 100
2019-09-18 03:00:00 12.2 5 Noroeste 17 Norte 1.4 -- -- 100
2019-09-18 02:00:00 12.4 2 Norte 9 Este 2 -- -- 100
2019-09-18 01:00:00 12.7 3 Este 27 Este 5 -- -- 100
2019-09-18 00:00:00 12.9 7 Norte 13 Norte 1.2 -- -- 98
2019-09-17 23:00:00 13.2 6 Norte 13 Norte 0 -- -- 90
2019-09-17 22:00:00 14.8 5 Noroeste 22 Norte 0 -- -- 81
2019-09-17 21:00:00 15.6 6 Noroeste 15 Norte 0 -- -- 76
2019-09-15 18:00:00 -- -- -- -- -- -- -- -- --
2019-09-15 17:00:00 -- -- -- -- -- -- -- -- --
2019-09-15 16:00:00 22.2 23 Sur 52 Sur 0 -- -- 50
2019-09-15 15:00:00 23 22 Sur 31 Sur 0 -- -- 47
2019-09-15 14:00:00 23.3 11 Sur 17 Sur 0 -- -- 46
2019-09-15 13:00:00 23.5 6 Sur 9 Sur 0 -- -- 43
2019-09-15 12:00:00 21.9 3 Sudeste 8 Sudoeste 0 -- -- 47
2019-09-15 11:00:00 18.7 4 Sur 8 Noroeste 0 -- -- 60
2019-09-15 10:00:00 18 2 Sudeste 11 Norte 0 -- -- 62
2019-09-15 09:00:00 12.4 0 Calma 10 Nordeste 0 -- -- 83
2019-09-15 08:00:00 11.7 6 Norte 12 Norte 0 -- -- 86
2019-09-15 07:00:00 12.7 3 Nordeste 13 Norte 0 -- -- 81
2019-09-15 06:00:00 12.8 9 Norte 13 Norte 0 -- -- 81
2019-09-15 05:00:00 13.5 7 Norte 13 Norte 0 -- -- 77
2019-09-15 04:00:00 15.1 2 Norte 11 Nordeste 0 -- -- 68
2019-09-15 03:00:00 15.8 2 Sudoeste 10 Este 0 -- -- 66
2019-09-15 02:00:00 16.2 5 Este 11 Este 0 -- -- 64
2019-09-15 01:00:00 16.1 2 Este 5 Nordeste 0 -- -- 72
2019-09-15 00:00:00 16.6 2 Nordeste 6 Este 0 -- -- 70